sensor_id;sensor_type;location;lat;lon;timestamp;pressure;altitude;pressure_sealevel;temperature;humidity
77454;BME280;66538;53.150;18.160;2023-02-15T00:02:20;103158.88;;;0.83;84.17
77454;BME280;66538;53.150;18.160;2023-02-15T00:04:47;103152.33;;;0.79;84.33
77454;BME280;66538;53.150;18.160;2023-02-15T00:07:15;103159.98;;;0.90;84.14
77454;BME280;66538;53.150;18.160;2023-02-15T00:09:42;103156.59;;;0.87;84.24
77454;BME280;66538;53.150;18.160;2023-02-15T00:12:09;103158.02;;;0.90;84.13
77454;BME280;66538;53.150;18.160;2023-02-15T00:14:36;103161.77;;;0.92;84.25
77454;BME280;66538;53.150;18.160;2023-02-15T00:17:03;103164.20;;;0.98;84.17
77454;BME280;66538;53.150;18.160;2023-02-15T00:19:30;103159.67;;;0.97;84.11
77454;BME280;66538;53.150;18.160;2023-02-15T00:21:57;103160.59;;;1.02;83.95
77454;BME280;66538;53.150;18.160;2023-02-15T00:24:24;103155.52;;;1.03;83.97
77454;BME280;66538;53.150;18.160;2023-02-15T00:26:50;103155.73;;;1.05;84.00
77454;BME280;66538;53.150;18.160;2023-02-15T00:29:19;103153.77;;;1.01;84.05
77454;BME280;66538;53.150;18.160;2023-02-15T00:31:45;103152.63;;;1.05;83.92
77454;BME280;66538;53.150;18.160;2023-02-15T00:34:18;103152.52;;;1.04;83.95
77454;BME280;66538;53.150;18.160;2023-02-15T00:36:46;103148.81;;;1.04;83.95
77454;BME280;66538;53.150;18.160;2023-02-15T00:39:15;103144.77;;;1.07;84.04
77454;BME280;66538;53.150;18.160;2023-02-15T00:41:44;103144.67;;;1.08;83.79
77454;BME280;66538;53.150;18.160;2023-02-15T00:44:14;103141.09;;;1.05;84.01
77454;BME280;66538;53.150;18.160;2023-02-15T00:46:41;103143.27;;;1.13;83.98
77454;BME280;66538;53.150;18.160;2023-02-15T00:49:09;103142.23;;;1.11;83.77
77454;BME280;66538;53.150;18.160;2023-02-15T00:51:37;103147.25;;;1.16;83.79
77454;BME280;66538;53.150;18.160;2023-02-15T00:54:03;103142.88;;;1.19;83.81
77454;BME280;66538;53.150;18.160;2023-02-15T00:56:30;103149.16;;;1.22;83.81
77454;BME280;66538;53.150;18.160;2023-02-15T00:58:57;103141.80;;;1.19;83.93
77454;BME280;66538;53.150;18.160;2023-02-15T01:01:24;103137.96;;;1.15;84.04
77454;BME280;66538;53.150;18.160;2023-02-15T01:03:52;103138.69;;;1.22;84.07
77454;BME280;66538;53.150;18.160;2023-02-15T01:06:19;103137.26;;;1.22;84.27
77454;BME280;66538;53.150;18.160;2023-02-15T01:08:47;103133.91;;;1.21;84.15
77454;BME280;66538;53.150;18.160;2023-02-15T01:11:20;103129.86;;;1.17;84.30
77454;BME280;66538;53.150;18.160;2023-02-15T01:13:56;103131.43;;;1.21;84.39
77454;BME280;66538;53.150;18.160;2023-02-15T01:16:25;103132.33;;;1.21;84.25
77454;BME280;66538;53.150;18.160;2023-02-15T01:18:52;103135.86;;;1.20;84.31
77454;BME280;66538;53.150;18.160;2023-02-15T01:21:23;103139.63;;;1.18;84.26
77454;BME280;66538;53.150;18.160;2023-02-15T01:23:50;103131.92;;;1.09;84.40
77454;BME280;66538;53.150;18.160;2023-02-15T01:26:17;103137.89;;;1.16;84.35
77454;BME280;66538;53.150;18.160;2023-02-15T01:28:44;103134.73;;;1.15;84.43
77454;BME280;66538;53.150;18.160;2023-02-15T01:31:14;103118.12;;;1.03;84.32
77454;BME280;66538;53.150;18.160;2023-02-15T01:33:41;103118.27;;;1.08;84.31
77454;BME280;66538;53.150;18.160;2023-02-15T01:36:09;103115.08;;;1.15;84.44
77454;BME280;66538;53.150;18.160;2023-02-15T01:38:36;103113.66;;;1.19;84.12
77454;BME280;66538;53.150;18.160;2023-02-15T01:41:06;103108.48;;;1.21;84.36
77454;BME280;66538;53.150;18.160;2023-02-15T01:43:56;103104.98;;;1.27;84.24
77454;BME280;66538;53.150;18.160;2023-02-15T01:46:45;103102.80;;;1.31;84.13
77454;BME280;66538;53.150;18.160;2023-02-15T01:49:19;103095.23;;;1.35;84.24
77454;BME280;66538;53.150;18.160;2023-02-15T01:51:48;103092.33;;;1.38;84.08
77454;BME280;66538;53.150;18.160;2023-02-15T01:54:27;103093.65;;;1.39;84.16
77454;BME280;66538;53.150;18.160;2023-02-15T01:57:01;103093.64;;;1.39;84.15
77454;BME280;66538;53.150;18.160;2023-02-15T01:59:32;103092.48;;;1.36;84.21
77454;BME280;66538;53.150;18.160;2023-02-15T02:02:00;103088.00;;;1.36;84.18
77454;BME280;66538;53.150;18.160;2023-02-15T02:04:45;103082.23;;;1.35;83.97
77454;BME280;66538;53.150;18.160;2023-02-15T02:07:16;103084.42;;;1.37;84.12
77454;BME280;66538;53.150;18.160;2023-02-15T02:09:44;103083.50;;;1.39;84.03
77454;BME280;66538;53.150;18.160;2023-02-15T02:12:11;103081.94;;;1.36;84.09
77454;BME280;66538;53.150;18.160;2023-02-15T02:14:40;103082.07;;;1.30;84.00
77454;BME280;66538;53.150;18.160;2023-02-15T02:17:35;103081.33;;;1.32;84.00
77454;BME280;66538;53.150;18.160;2023-02-15T02:20:22;103081.36;;;1.26;84.00
77454;BME280;66538;53.150;18.160;2023-02-15T02:28:54;103073.32;;;1.26;84.19
77454;BME280;66538;53.150;18.160;2023-02-15T02:31:44;103075.24;;;1.27;84.17
77454;BME280;66538;53.150;18.160;2023-02-15T02:36:55;103066.67;;;1.07;84.49
77454;BME280;66538;53.150;18.160;2023-02-15T02:42:38;103072.27;;;1.17;84.45
77454;BME280;66538;53.150;18.160;2023-02-15T02:45:20;103078.95;;;1.20;84.44
77454;BME280;66538;53.150;18.160;2023-02-15T02:47:53;103073.66;;;1.09;84.43
77454;BME280;66538;53.150;18.160;2023-02-15T02:50:26;103077.38;;;1.20;84.51
77454;BME280;66538;53.150;18.160;2023-02-15T02:52:56;103069.36;;;1.18;84.35
77454;BME280;66538;53.150;18.160;2023-02-15T02:56:16;103073.39;;;1.24;84.16
77454;BME280;66538;53.150;18.160;2023-02-15T02:58:26;103080.59;;;1.43;84.18
77454;BME280;66538;53.150;18.160;2023-02-15T03:03:47;103082.05;;;1.49;83.91
77454;BME280;66538;53.150;18.160;2023-02-15T03:06:19;103075.71;;;1.49;83.91
77454;BME280;66538;53.150;18.160;2023-02-15T03:08:51;103063.83;;;1.41;83.88
77454;BME280;66538;53.150;18.160;2023-02-15T03:11:21;103054.04;;;1.20;84.25
77454;BME280;66538;53.150;18.160;2023-02-15T03:13:49;103058.10;;;1.25;84.28
77454;BME280;66538;53.150;18.160;2023-02-15T03:16:18;103053.21;;;1.21;84.28
77454;BME280;66538;53.150;18.160;2023-02-15T03:19:01;103053.25;;;1.18;84.28
77454;BME280;66538;53.150;18.160;2023-02-15T03:21:32;103048.20;;;1.12;84.36
77454;BME280;66538;53.150;18.160;2023-02-15T03:24:02;103052.53;;;1.24;84.44
77454;BME280;66538;53.150;18.160;2023-02-15T03:26:32;103044.41;;;1.19;84.17
77454;BME280;66538;53.150;18.160;2023-02-15T03:29:02;103048.20;;;1.24;84.21
77454;BME280;66538;53.150;18.160;2023-02-15T03:31:32;103048.40;;;1.24;84.03
77454;BME280;66538;53.150;18.160;2023-02-15T03:34:02;103047.11;;;1.23;84.28
77454;BME280;66538;53.150;18.160;2023-02-15T03:36:39;103051.43;;;1.26;83.96
77454;BME280;66538;53.150;18.160;2023-02-15T03:42:10;103056.08;;;1.26;84.13
77454;BME280;66538;53.150;18.160;2023-02-15T03:44:49;103051.36;;;1.23;84.03
77454;BME280;66538;53.150;18.160;2023-02-15T03:47:20;103050.66;;;1.23;84.15
77454;BME280;66538;53.150;18.160;2023-02-15T03:52:21;103054.40;;;1.23;84.13
77454;BME280;66538;53.150;18.160;2023-02-15T03:54:49;103049.02;;;1.22;84.27
77454;BME280;66538;53.150;18.160;2023-02-15T03:57:28;103049.86;;;1.22;84.19
77454;BME280;66538;53.150;18.160;2023-02-15T04:00:18;103049.05;;;1.19;84.13
77454;BME280;66538;53.150;18.160;2023-02-15T04:05:56;103050.64;;;1.20;84.11
77454;BME280;66538;53.150;18.160;2023-02-15T04:08:22;103051.46;;;1.16;84.22
77454;BME280;66538;53.150;18.160;2023-02-15T04:11:09;103039.92;;;1.04;84.14
77454;BME280;66538;53.150;18.160;2023-02-15T04:13:35;103041.09;;;1.05;84.38
77454;BME280;66538;53.150;18.160;2023-02-15T04:16:02;103044.17;;;1.09;84.25
77454;BME280;66538;53.150;18.160;2023-02-15T04:18:34;103043.89;;;1.14;84.10
77454;BME280;66538;53.150;18.160;2023-02-15T04:21:22;103042.88;;;1.12;84.23
77454;BME280;66538;53.150;18.160;2023-02-15T04:24:08;103033.70;;;1.09;84.26
77454;BME280;66538;53.150;18.160;2023-02-15T04:26:54;103039.39;;;1.11;84.40
77454;BME280;66538;53.150;18.160;2023-02-15T04:29:23;103037.49;;;1.12;84.44
77454;BME280;66538;53.150;18.160;2023-02-15T04:31:51;103038.99;;;1.11;84.31
77454;BME280;66538;53.150;18.160;2023-02-15T04:34:18;103038.90;;;1.09;84.34
77454;BME280;66538;53.150;18.160;2023-02-15T04:36:44;103036.76;;;1.14;84.42
77454;BME280;66538;53.150;18.160;2023-02-15T04:39:16;103037.30;;;1.14;84.24
77454;BME280;66538;53.150;18.160;2023-02-15T04:41:43;103046.36;;;1.34;84.14
77454;BME280;66538;53.150;18.160;2023-02-15T04:44:11;103041.81;;;1.34;83.98
77454;BME280;66538;53.150;18.160;2023-02-15T04:46:38;103042.60;;;1.32;84.09
77454;BME280;66538;53.150;18.160;2023-02-15T04:49:04;103044.55;;;1.30;84.19
77454;BME280;66538;53.150;18.160;2023-02-15T04:51:31;103034.93;;;1.29;84.24
77454;BME280;66538;53.150;18.160;2023-02-15T04:53:57;103008.08;;;1.03;84.33
77454;BME280;66538;53.150;18.160;2023-02-15T04:56:24;103014.59;;;1.06;84.44
77454;BME280;66538;53.150;18.160;2023-02-15T04:58:50;103019.91;;;1.15;84.49
77454;BME280;66538;53.150;18.160;2023-02-15T05:01:17;103018.88;;;1.14;84.41
77454;BME280;66538;53.150;18.160;2023-02-15T05:03:44;103015.47;;;1.15;84.30
77454;BME280;66538;53.150;18.160;2023-02-15T05:06:10;103011.66;;;1.19;84.31
77454;BME280;66538;53.150;18.160;2023-02-15T05:08:37;103019.09;;;1.23;84.28
77454;BME280;66538;53.150;18.160;2023-02-15T05:11:04;103028.61;;;1.34;84.20
77454;BME280;66538;53.150;18.160;2023-02-15T05:13:30;103030.49;;;1.32;84.18
77454;BME280;66538;53.150;18.160;2023-02-15T05:15:57;103037.48;;;1.31;83.99
77454;BME280;66538;53.150;18.160;2023-02-15T05:18:23;103031.11;;;1.27;84.26
77454;BME280;66538;53.150;18.160;2023-02-15T05:20:50;103021.70;;;1.13;84.37
77454;BME280;66538;53.150;18.160;2023-02-15T05:23:17;103020.73;;;1.14;84.50
77454;BME280;66538;53.150;18.160;2023-02-15T05:25:50;103011.29;;;0.99;84.65
77454;BME280;66538;53.150;18.160;2023-02-15T05:28:36;103016.56;;;1.06;84.47
77454;BME280;66538;53.150;18.160;2023-02-15T05:31:10;103021.73;;;1.12;84.42
77454;BME280;66538;53.150;18.160;2023-02-15T05:33:37;103020.78;;;1.17;84.34
77454;BME280;66538;53.150;18.160;2023-02-15T05:36:05;103018.06;;;1.13;84.50
77454;BME280;66538;53.150;18.160;2023-02-15T05:38:32;103023.86;;;1.22;84.46
77454;BME280;66538;53.150;18.160;2023-02-15T05:40:59;103023.01;;;1.20;84.39
77454;BME280;66538;53.150;18.160;2023-02-15T05:43:26;103025.19;;;1.24;84.38
77454;BME280;66538;53.150;18.160;2023-02-15T05:45:54;103038.27;;;1.45;84.34
77454;BME280;66538;53.150;18.160;2023-02-15T05:48:22;103038.33;;;1.44;84.10
77454;BME280;66538;53.150;18.160;2023-02-15T05:51:07;103037.98;;;1.42;83.91
77454;BME280;66538;53.150;18.160;2023-02-15T05:53:36;103036.19;;;1.41;84.18
77454;BME280;66538;53.150;18.160;2023-02-15T05:56:05;103033.10;;;1.39;84.04
77454;BME280;66538;53.150;18.160;2023-02-15T05:58:38;103026.66;;;1.31;84.07
77454;BME280;66538;53.150;18.160;2023-02-15T06:01:16;103021.54;;;1.23;84.40
77454;BME280;66538;53.150;18.160;2023-02-15T06:03:44;103011.14;;;1.06;84.37
77454;BME280;66538;53.150;18.160;2023-02-15T06:06:11;103012.91;;;1.05;84.64
77454;BME280;66538;53.150;18.160;2023-02-15T06:08:38;103015.47;;;1.11;84.64
77454;BME280;66538;53.150;18.160;2023-02-15T06:11:05;103016.62;;;1.16;84.41
77454;BME280;66538;53.150;18.160;2023-02-15T06:13:33;103025.89;;;1.35;84.28
77454;BME280;66538;53.150;18.160;2023-02-15T06:15:59;103031.84;;;1.47;84.07
77454;BME280;66538;53.150;18.160;2023-02-15T06:18:26;103032.47;;;1.46;84.04
77454;BME280;66538;53.150;18.160;2023-02-15T06:20:53;103037.84;;;1.45;84.16
77454;BME280;66538;53.150;18.160;2023-02-15T06:23:19;103035.84;;;1.46;84.05
77454;BME280;66538;53.150;18.160;2023-02-15T06:25:46;103036.41;;;1.45;84.02
77454;BME280;66538;53.150;18.160;2023-02-15T06:28:13;103020.48;;;1.23;84.22
77454;BME280;66538;53.150;18.160;2023-02-15T06:30:40;103029.35;;;1.29;84.35
77454;BME280;66538;53.150;18.160;2023-02-15T06:33:06;103027.51;;;1.28;84.38
77454;BME280;66538;53.150;18.160;2023-02-15T06:35:33;103021.72;;;1.25;84.33
77454;BME280;66538;53.150;18.160;2023-02-15T06:38:00;103019.45;;;1.21;84.63
77454;BME280;66538;53.150;18.160;2023-02-15T06:40:26;103024.02;;;1.29;84.52
77454;BME280;66538;53.150;18.160;2023-02-15T06:42:53;103023.23;;;1.28;84.67
77454;BME280;66538;53.150;18.160;2023-02-15T06:45:19;103019.66;;;1.29;84.49
77454;BME280;66538;53.150;18.160;2023-02-15T06:47:46;103019.12;;;1.33;84.22
77454;BME280;66538;53.150;18.160;2023-02-15T06:50:13;103023.45;;;1.36;84.50
77454;BME280;66538;53.150;18.160;2023-02-15T06:52:39;103024.11;;;1.37;84.36
77454;BME280;66538;53.150;18.160;2023-02-15T06:55:06;103020.73;;;1.37;84.48
77454;BME280;66538;53.150;18.160;2023-02-15T06:57:33;103023.27;;;1.40;84.39
77454;BME280;66538;53.150;18.160;2023-02-15T07:00:00;103023.61;;;1.45;84.53
77454;BME280;66538;53.150;18.160;2023-02-15T07:02:26;103022.46;;;1.51;84.35
77454;BME280;66538;53.150;18.160;2023-02-15T07:04:53;103016.02;;;1.50;84.15
77454;BME280;66538;53.150;18.160;2023-02-15T07:07:20;103016.14;;;1.54;84.56
77454;BME280;66538;53.150;18.160;2023-02-15T07:09:46;103016.12;;;1.62;84.34
77454;BME280;66538;53.150;18.160;2023-02-15T07:12:13;103010.91;;;1.65;84.28
77454;BME280;66538;53.150;18.160;2023-02-15T07:14:58;102999.51;;;1.61;84.00
77454;BME280;66538;53.150;18.160;2023-02-15T07:17:26;102997.54;;;1.71;84.17
77454;BME280;66538;53.150;18.160;2023-02-15T07:19:55;102997.80;;;1.76;84.19
77454;BME280;66538;53.150;18.160;2023-02-15T07:22:21;102991.88;;;1.83;84.08
77454;BME280;66538;53.150;18.160;2023-02-15T07:24:48;102992.99;;;1.88;84.12
77454;BME280;66538;53.150;18.160;2023-02-15T07:27:15;102990.80;;;1.91;83.96
77454;BME280;66538;53.150;18.160;2023-02-15T07:29:42;102992.27;;;1.96;83.89
77454;BME280;66538;53.150;18.160;2023-02-15T07:32:08;102990.20;;;2.00;83.88
77454;BME280;66538;53.150;18.160;2023-02-15T07:34:35;102992.39;;;2.04;83.82
77454;BME280;66538;53.150;18.160;2023-02-15T07:37:02;102993.77;;;2.09;83.68
77454;BME280;66538;53.150;18.160;2023-02-15T07:39:28;102994.04;;;2.13;83.71
77454;BME280;66538;53.150;18.160;2023-02-15T07:41:55;102980.91;;;1.99;83.95
77454;BME280;66538;53.150;18.160;2023-02-15T07:44:23;102984.11;;;2.09;83.72
77454;BME280;66538;53.150;18.160;2023-02-15T07:46:50;102989.42;;;2.27;83.37
77454;BME280;66538;53.150;18.160;2023-02-15T07:49:16;102993.06;;;2.44;83.30
77454;BME280;66538;53.150;18.160;2023-02-15T07:51:43;102986.02;;;2.50;83.11
77454;BME280;66538;53.150;18.160;2023-02-15T07:54:10;102986.20;;;2.53;82.93
77454;BME280;66538;53.150;18.160;2023-02-15T07:56:36;102982.36;;;2.57;83.06
77454;BME280;66538;53.150;18.160;2023-02-15T07:59:03;102966.63;;;2.46;83.03
77454;BME280;66538;53.150;18.160;2023-02-15T08:01:34;102970.56;;;2.57;83.06
77454;BME280;66538;53.150;18.160;2023-02-15T08:04:03;102967.75;;;2.64;83.01
77454;BME280;66538;53.150;18.160;2023-02-15T08:06:33;102962.35;;;2.66;82.72
77454;BME280;66538;53.150;18.160;2023-02-15T08:09:03;102958.55;;;2.68;82.98
77454;BME280;66538;53.150;18.160;2023-02-15T08:11:32;102956.85;;;2.72;82.73
77454;BME280;66538;53.150;18.160;2023-02-15T08:14:07;102943.45;;;2.67;82.71
77454;BME280;66538;53.150;18.160;2023-02-15T08:16:42;102944.48;;;2.77;82.45
77454;BME280;66538;53.150;18.160;2023-02-15T08:19:24;102935.14;;;2.79;82.88
77454;BME280;66538;53.150;18.160;2023-02-15T08:21:59;102934.02;;;2.88;82.84
77454;BME280;66538;53.150;18.160;2023-02-15T08:24:29;102920.09;;;2.81;82.46
77454;BME280;66538;53.150;18.160;2023-02-15T08:26:56;102926.09;;;2.97;83.20
77454;BME280;66538;53.150;18.160;2023-02-15T08:29:27;102924.48;;;3.11;82.62
77454;BME280;66538;53.150;18.160;2023-02-15T08:31:57;102923.40;;;3.21;82.52
77454;BME280;66538;53.150;18.160;2023-02-15T08:34:30;102924.38;;;3.28;82.51
77454;BME280;66538;53.150;18.160;2023-02-15T08:36:57;102922.73;;;3.42;82.14
77454;BME280;66538;53.150;18.160;2023-02-15T08:39:24;102920.03;;;3.53;82.01
77454;BME280;66538;53.150;18.160;2023-02-15T08:41:51;102927.48;;;3.61;81.75
77454;BME280;66538;53.150;18.160;2023-02-15T08:44:18;102921.16;;;3.66;81.75
77454;BME280;66538;53.150;18.160;2023-02-15T08:46:47;102919.11;;;3.72;81.57
77454;BME280;66538;53.150;18.160;2023-02-15T08:49:21;102920.67;;;3.82;81.62
77454;BME280;66538;53.150;18.160;2023-02-15T08:51:49;102916.11;;;3.90;81.41
77454;BME280;66538;53.150;18.160;2023-02-15T08:54:18;102908.39;;;3.87;81.24
77454;BME280;66538;53.150;18.160;2023-02-15T08:56:45;102908.99;;;3.99;80.84
77454;BME280;66538;53.150;18.160;2023-02-15T08:59:15;102901.85;;;4.07;80.96
77454;BME280;66538;53.150;18.160;2023-02-15T09:01:43;102900.03;;;4.10;80.56
77454;BME280;66538;53.150;18.160;2023-02-15T09:04:10;102901.33;;;4.25;80.58
77454;BME280;66538;53.150;18.160;2023-02-15T09:06:38;102900.70;;;4.34;80.51
77454;BME280;66538;53.150;18.160;2023-02-15T09:09:06;102899.60;;;4.40;80.10
77454;BME280;66538;53.150;18.160;2023-02-15T09:11:36;102887.66;;;4.35;80.48
77454;BME280;66538;53.150;18.160;2023-02-15T09:14:09;102894.55;;;4.54;80.27
77454;BME280;66538;53.150;18.160;2023-02-15T09:16:37;102897.31;;;4.66;79.78
77454;BME280;66538;53.150;18.160;2023-02-15T09:19:04;102891.70;;;4.71;80.09
77454;BME280;66538;53.150;18.160;2023-02-15T09:21:34;102891.69;;;4.83;79.67
77454;BME280;66538;53.150;18.160;2023-02-15T09:24:04;102890.05;;;4.86;79.30
77454;BME280;66538;53.150;18.160;2023-02-15T09:26:33;102888.10;;;4.92;79.19
77454;BME280;66538;53.150;18.160;2023-02-15T09:29:01;102888.75;;;5.03;78.80
77454;BME280;66538;53.150;18.160;2023-02-15T09:31:37;102881.98;;;5.04;79.16
77454;BME280;66538;53.150;18.160;2023-02-15T09:34:05;102886.37;;;5.20;78.62
77454;BME280;66538;53.150;18.160;2023-02-15T09:36:37;102892.56;;;5.34;78.37
77454;BME280;66538;53.150;18.160;2023-02-15T09:39:17;102885.69;;;5.40;78.63
77454;BME280;66538;53.150;18.160;2023-02-15T09:45:00;102882.55;;;5.41;77.51
77454;BME280;66538;53.150;18.160;2023-02-15T09:50:36;102875.17;;;5.59;77.53
77454;BME280;66538;53.150;18.160;2023-02-15T09:53:29;102860.34;;;5.54;76.57
77454;BME280;66538;53.150;18.160;2023-02-15T09:56:30;102858.04;;;5.54;76.85
77454;BME280;66538;53.150;18.160;2023-02-15T10:12:38;102852.39;;;5.65;75.35
77454;BME280;66538;53.150;18.160;2023-02-15T10:18:03;102843.38;;;5.49;74.81
77454;BME280;66538;53.150;18.160;2023-02-15T10:31:49;102847.92;;;5.50;74.42
77454;BME280;66538;53.150;18.160;2023-02-15T10:34:30;102847.55;;;5.48;74.36
77454;BME280;66538;53.150;18.160;2023-02-15T10:37:21;102832.66;;;5.26;73.97
77454;BME280;66538;53.150;18.160;2023-02-15T10:43:26;102834.95;;;5.25;74.78
77454;BME280;66538;53.150;18.160;2023-02-15T10:49:23;102833.98;;;5.49;73.86
77454;BME280;66538;53.150;18.160;2023-02-15T10:58:12;102823.33;;;5.41;74.64
77454;BME280;66538;53.150;18.160;2023-02-15T11:01:26;102820.05;;;5.43;73.82
77454;BME280;66538;53.150;18.160;2023-02-15T11:06:25;102811.20;;;5.55;74.39
77454;BME280;66538;53.150;18.160;2023-02-15T11:09:00;102815.39;;;5.62;73.78
77454;BME280;66538;53.150;18.160;2023-02-15T11:11:37;102813.50;;;5.65;73.57
77454;BME280;66538;53.150;18.160;2023-02-15T11:14:15;102800.81;;;5.65;73.17
77454;BME280;66538;53.150;18.160;2023-02-15T11:16:50;102803.38;;;5.73;73.44
77454;BME280;66538;53.150;18.160;2023-02-15T11:19:26;102801.44;;;5.74;72.56
77454;BME280;66538;53.150;18.160;2023-02-15T11:21:59;102790.09;;;5.71;73.03
77454;BME280;66538;53.150;18.160;2023-02-15T11:24:29;102780.38;;;5.76;73.53
77454;BME280;66538;53.150;18.160;2023-02-15T11:27:13;102784.40;;;5.93;73.09
77454;BME280;66538;53.150;18.160;2023-02-15T11:30:05;102789.23;;;6.16;72.47
77454;BME280;66538;53.150;18.160;2023-02-15T11:32:44;102784.61;;;6.21;72.35
77454;BME280;66538;53.150;18.160;2023-02-15T11:40:36;102774.55;;;6.09;72.08
77454;BME280;66538;53.150;18.160;2023-02-15T11:43:30;102768.44;;;6.11;72.86
77454;BME280;66538;53.150;18.160;2023-02-15T11:45:57;102762.41;;;6.21;72.21
77454;BME280;66538;53.150;18.160;2023-02-15T11:48:24;102759.19;;;6.22;71.66
77454;BME280;66538;53.150;18.160;2023-02-15T11:50:51;102753.11;;;6.17;71.28
77454;BME280;66538;53.150;18.160;2023-02-15T11:53:20;102750.69;;;6.18;71.62
77454;BME280;66538;53.150;18.160;2023-02-15T11:55:48;102754.06;;;6.27;71.67
77454;BME280;66538;53.150;18.160;2023-02-15T12:01:00;102752.64;;;6.54;71.81
77454;BME280;66538;53.150;18.160;2023-02-15T12:03:44;102758.11;;;6.72;71.14
77454;BME280;66538;53.150;18.160;2023-02-15T12:06:37;102758.91;;;6.81;70.45
77454;BME280;66538;53.150;18.160;2023-02-15T12:11:50;102738.46;;;7.05;70.34
77454;BME280;66538;53.150;18.160;2023-02-15T12:14:17;102735.22;;;7.10;69.98
77454;BME280;66538;53.150;18.160;2023-02-15T12:16:50;102734.63;;;7.21;69.87
77454;BME280;66538;53.150;18.160;2023-02-15T12:21:57;102732.04;;;7.27;69.58
77454;BME280;66538;53.150;18.160;2023-02-15T12:24:36;102732.46;;;7.25;69.25
77454;BME280;66538;53.150;18.160;2023-02-15T12:27:13;102727.81;;;7.19;69.34
77454;BME280;66538;53.150;18.160;2023-02-15T12:29:43;102728.33;;;7.17;69.41
77454;BME280;66538;53.150;18.160;2023-02-15T12:32:28;102725.63;;;7.11;69.74
77454;BME280;66538;53.150;18.160;2023-02-15T12:35:01;102717.81;;;6.98;69.35
77454;BME280;66538;53.150;18.160;2023-02-15T12:37:34;102714.85;;;6.85;69.53
77454;BME280;66538;53.150;18.160;2023-02-15T12:40:18;102711.29;;;6.72;69.42
77454;BME280;66538;53.150;18.160;2023-02-15T12:42:46;102711.33;;;6.62;70.23
77454;BME280;66538;53.150;18.160;2023-02-15T12:45:39;102711.73;;;6.62;69.81
77454;BME280;66538;53.150;18.160;2023-02-15T12:50:40;102702.00;;;6.51;70.30
77454;BME280;66538;53.150;18.160;2023-02-15T12:53:16;102704.88;;;6.66;69.40
77454;BME280;66538;53.150;18.160;2023-02-15T12:56:07;102699.73;;;6.65;69.68
77454;BME280;66538;53.150;18.160;2023-02-15T12:58:36;102692.63;;;6.65;69.35
77454;BME280;66538;53.150;18.160;2023-02-15T13:03:52;102684.75;;;6.53;69.33
77454;BME280;66538;53.150;18.160;2023-02-15T13:06:20;102680.77;;;6.49;69.31
77454;BME280;66538;53.150;18.160;2023-02-15T13:08:50;102676.13;;;6.43;69.74
77454;BME280;66538;53.150;18.160;2023-02-15T13:11:25;102680.51;;;6.47;69.58
77454;BME280;66538;53.150;18.160;2023-02-15T13:13:58;102673.04;;;6.48;70.06
77454;BME280;66538;53.150;18.160;2023-02-15T13:16:34;102670.84;;;6.52;69.87
77454;BME280;66538;53.150;18.160;2023-02-15T13:19:18;102668.20;;;6.63;69.85
77454;BME280;66538;53.150;18.160;2023-02-15T13:21:50;102665.27;;;6.76;69.58
77454;BME280;66538;53.150;18.160;2023-02-15T13:26:56;102660.98;;;6.99;69.32
77454;BME280;66538;53.150;18.160;2023-02-15T13:29:26;102658.40;;;7.02;68.55
77454;BME280;66538;53.150;18.160;2023-02-15T13:31:55;102657.17;;;7.02;69.14
77454;BME280;66538;53.150;18.160;2023-02-15T13:34:24;102655.19;;;7.02;69.53
77454;BME280;66538;53.150;18.160;2023-02-15T13:37:16;102647.55;;;7.02;69.07
77454;BME280;66538;53.150;18.160;2023-02-15T13:39:53;102647.10;;;7.04;69.19
77454;BME280;66538;53.150;18.160;2023-02-15T13:42:21;102649.91;;;7.02;68.49
77454;BME280;66538;53.150;18.160;2023-02-15T13:45:15;102649.52;;;6.89;68.98
77454;BME280;66538;53.150;18.160;2023-02-15T13:47:55;102647.56;;;6.75;68.75
77454;BME280;66538;53.150;18.160;2023-02-15T13:50:46;102649.08;;;6.72;69.29
77454;BME280;66538;53.150;18.160;2023-02-15T13:56:33;102643.84;;;6.83;69.87
77454;BME280;66538;53.150;18.160;2023-02-15T14:07:58;102641.13;;;6.80;69.48
77454;BME280;66538;53.150;18.160;2023-02-15T14:10:49;102635.07;;;6.63;69.74
77454;BME280;66538;53.150;18.160;2023-02-15T14:15:54;102617.88;;;6.34;70.22
77454;BME280;66538;53.150;18.160;2023-02-15T14:21:08;102617.77;;;6.20;70.38
77454;BME280;66538;53.150;18.160;2023-02-15T14:23:52;102618.80;;;6.11;70.71
77454;BME280;66538;53.150;18.160;2023-02-15T14:29:25;102621.67;;;6.07;70.74
77454;BME280;66538;53.150;18.160;2023-02-15T14:31:57;102623.98;;;6.07;71.21
77454;BME280;66538;53.150;18.160;2023-02-15T14:34:36;102623.15;;;6.10;70.90
77454;BME280;66538;53.150;18.160;2023-02-15T14:37:12;102624.30;;;6.07;70.68
77454;BME280;66538;53.150;18.160;2023-02-15T14:39:44;102619.89;;;6.01;71.27
77454;BME280;66538;53.150;18.160;2023-02-15T14:42:42;102616.77;;;5.96;71.04
77454;BME280;66538;53.150;18.160;2023-02-15T14:45:33;102616.11;;;5.90;71.17
77454;BME280;66538;53.150;18.160;2023-02-15T14:48:12;102617.28;;;5.83;71.31
77454;BME280;66538;53.150;18.160;2023-02-15T14:50:44;102615.03;;;5.76;71.65
77454;BME280;66538;53.150;18.160;2023-02-15T14:55:41;102607.59;;;5.60;71.45
77454;BME280;66538;53.150;18.160;2023-02-15T14:58:12;102607.48;;;5.51;71.34
77454;BME280;66538;53.150;18.160;2023-02-15T15:00:40;102600.54;;;5.38;71.74
77454;BME280;66538;53.150;18.160;2023-02-15T15:03:21;102601.30;;;5.29;71.84
77454;BME280;66538;53.150;18.160;2023-02-15T15:05:52;102602.88;;;5.23;72.02
77454;BME280;66538;53.150;18.160;2023-02-15T15:08:40;102598.73;;;5.16;72.20
77454;BME280;66538;53.150;18.160;2023-02-15T15:13:58;102597.86;;;5.07;72.56
77454;BME280;66538;53.150;18.160;2023-02-15T15:19:04;102592.55;;;4.97;72.67